createdAt,value
2018-09-08T00:02:01.853Z,70.30
2018-09-08T00:04:31.213Z,70.20
2018-09-08T00:07:05.854Z,70.30
2018-09-08T00:09:35.255Z,70.40
2018-09-08T00:12:04.605Z,70.30
2018-09-08T00:14:33.038Z,70.30
2018-09-08T00:17:07.588Z,70.30
2018-09-08T00:19:42.084Z,70.20
2018-09-08T00:22:16.799Z,70.20
2018-09-08T00:24:51.297Z,70.20
2018-09-08T00:27:22.740Z,70.20
2018-09-08T00:29:52.105Z,70.00
2018-09-08T00:32:22.513Z,70.10
2018-09-08T00:34:51.868Z,69.90
2018-09-08T00:37:21.240Z,69.80
2018-09-08T00:39:52.237Z,70.10
2018-09-08T00:42:21.620Z,69.80
2018-09-08T00:44:50.941Z,69.70
2018-09-08T00:47:20.335Z,69.80
2018-09-08T00:49:49.732Z,69.90
2018-09-08T00:52:19.140Z,70.00
2018-09-08T00:54:48.560Z,70.00
2018-09-08T00:57:17.932Z,70.10
2018-09-08T00:59:47.348Z,70.10
2018-09-08T01:02:16.731Z,69.90
2018-09-08T01:04:46.541Z,70.00
2018-09-08T01:07:21.152Z,69.90
2018-09-08T01:09:50.690Z,70.00
2018-09-08T01:12:20.122Z,69.90
2018-09-08T01:14:49.540Z,70.00
2018-09-08T01:17:18.904Z,70.00
2018-09-08T01:19:48.354Z,70.00
2018-09-08T01:22:18.193Z,70.10
2018-09-08T01:24:47.604Z,70.30
2018-09-08T01:27:16.935Z,70.30
2018-09-08T01:29:46.315Z,70.20
2018-09-08T01:32:15.683Z,70.10
2018-09-08T01:34:45.227Z,70.10
2018-09-08T01:37:14.592Z,70.00
2018-09-08T01:39:44.018Z,70.00
2018-09-08T01:42:13.371Z,69.90
2018-09-08T01:44:42.769Z,70.90
2018-09-08T01:47:12.114Z,70.10
2018-09-08T01:49:41.462Z,71.60
2018-09-08T01:52:10.776Z,71.50
2018-09-08T01:54:40.123Z,71.00
2018-09-08T01:57:09.490Z,70.70
2018-09-08T01:59:38.883Z,70.20
2018-09-08T02:02:08.220Z,70.90
2018-09-08T02:04:37.579Z,70.00
2018-09-08T02:07:06.924Z,69.80
2018-09-08T02:09:36.420Z,69.80
2018-09-08T02:12:05.785Z,69.80
2018-09-08T02:14:35.756Z,69.60
2018-09-08T02:17:05.431Z,69.60
2018-09-08T02:19:34.792Z,69.80
2018-09-08T02:22:04.136Z,69.90
2018-09-08T02:24:34.384Z,69.60
2018-09-08T02:27:03.747Z,69.10
2018-09-08T02:29:33.093Z,68.90
2018-09-08T02:32:02.425Z,68.60
2018-09-08T02:34:31.836Z,68.50
2018-09-08T02:37:01.220Z,68.00
2018-09-08T02:39:30.578Z,67.80
2018-09-08T02:41:59.924Z,67.60
2018-09-08T02:44:29.288Z,67.50
2018-09-08T02:46:58.687Z,67.50
2018-09-08T02:49:47.735Z,67.20
2018-09-08T02:52:15.393Z,67.90
2018-09-08T02:54:43.057Z,66.10
2018-09-08T02:57:11.431Z,67.00
2018-09-08T02:59:39.167Z,67.00
2018-09-08T03:02:06.849Z,67.10
2018-09-08T03:04:34.517Z,67.00
2018-09-08T03:07:06.252Z,67.00
2018-09-08T03:09:34.032Z,66.90
2018-09-08T03:12:01.681Z,66.90
2018-09-08T03:14:29.358Z,66.70
2018-09-08T03:16:57.040Z,66.80
2018-09-08T03:19:24.726Z,66.60
2018-09-08T03:21:52.392Z,66.60
2018-09-08T03:24:20.085Z,66.50
2018-09-08T03:26:47.711Z,66.40
2018-09-08T03:29:15.409Z,66.40
2018-09-08T03:31:43.119Z,66.30
2018-09-08T03:34:11.131Z,66.30
2018-09-08T03:36:38.773Z,66.30
2018-09-08T03:39:06.477Z,66.30
2018-09-08T03:41:34.624Z,66.10
2018-09-08T03:44:02.399Z,66.10
2018-09-08T03:46:30.463Z,66.20
2018-09-08T03:48:58.111Z,66.50
2018-09-08T03:51:25.791Z,66.50
2018-09-08T03:53:53.437Z,65.90
2018-09-08T03:56:21.116Z,66.00
2018-09-08T03:58:48.766Z,66.10
2018-09-08T04:01:16.403Z,66.10
2018-09-08T04:03:45.739Z,66.00
2018-09-08T04:06:15.166Z,66.00
2018-09-08T04:08:44.519Z,65.80
2018-09-08T04:11:13.972Z,66.10
2018-09-08T04:13:43.273Z,66.20
2018-09-08T04:16:12.694Z,66.10
2018-09-08T04:18:42.026Z,66.00
2018-09-08T04:21:11.412Z,66.10
2018-09-08T04:23:40.794Z,66.10
2018-09-08T04:26:10.164Z,66.20
2018-09-08T04:28:39.564Z,66.10
2018-09-08T04:31:08.880Z,66.20
2018-09-08T04:33:38.229Z,66.30
2018-09-08T04:36:07.599Z,66.30
2018-09-08T04:38:36.961Z,66.30
2018-09-08T04:41:06.436Z,66.50
2018-09-08T04:43:35.755Z,66.00
2018-09-08T04:46:05.145Z,66.30
2018-09-08T04:48:34.525Z,66.10
2018-09-08T04:51:03.893Z,66.30
2018-09-08T04:53:33.304Z,66.10
2018-09-08T04:56:02.639Z,66.60
2018-09-08T04:58:32.031Z,66.70
2018-09-08T05:01:01.341Z,66.90
2018-09-08T05:03:30.681Z,67.10
2018-09-08T05:06:00.068Z,67.20
2018-09-08T05:08:29.500Z,67.40
2018-09-08T05:10:58.886Z,67.30
2018-09-08T05:13:28.208Z,67.40
2018-09-08T05:15:57.554Z,67.40
2018-09-08T05:18:27.313Z,67.10
2018-09-08T05:20:56.657Z,66.80
2018-09-08T05:23:26.042Z,66.80
2018-09-08T05:25:55.357Z,66.70
2018-09-08T05:28:24.783Z,66.50
2018-09-08T05:30:54.275Z,67.00
2018-09-08T05:33:23.650Z,67.10
2018-09-08T05:35:52.976Z,67.10
2018-09-08T05:38:22.328Z,66.70
2018-09-08T05:40:51.663Z,66.90
2018-09-08T05:43:21.042Z,66.50
2018-09-08T05:45:50.401Z,66.60
2018-09-08T05:48:19.779Z,66.60
2018-09-08T05:50:49.147Z,66.60
2018-09-08T05:53:18.496Z,66.70
2018-09-08T05:55:47.812Z,67.00
2018-09-08T05:58:17.206Z,67.50
2018-09-08T06:00:46.560Z,67.80
2018-09-08T06:03:15.913Z,68.20
2018-09-08T06:05:45.363Z,68.60
2018-09-08T06:08:14.710Z,68.70
2018-09-08T06:10:44.091Z,69.00
2018-09-08T06:13:13.521Z,69.20
2018-09-08T06:15:42.881Z,69.20
2018-09-08T06:18:12.241Z,69.20
2018-09-08T06:20:41.606Z,69.40
2018-09-08T06:23:10.981Z,69.60
2018-09-08T06:25:40.509Z,69.60
2018-09-08T06:28:09.816Z,69.70
2018-09-08T06:30:39.176Z,70.00
2018-09-08T06:33:08.514Z,69.50
2018-09-08T06:35:37.959Z,69.50
2018-09-08T06:38:07.373Z,69.40
2018-09-08T06:40:36.752Z,69.50
2018-09-08T06:43:06.343Z,69.60
2018-09-08T06:45:35.747Z,69.50
2018-09-08T06:48:05.190Z,69.50
2018-09-08T06:50:34.552Z,69.60
2018-09-08T06:53:04.061Z,69.50
2018-09-08T06:55:33.412Z,69.50
2018-09-08T06:58:02.897Z,69.50
2018-09-08T07:00:32.200Z,69.60
2018-09-08T07:03:01.578Z,69.80
2018-09-08T07:05:30.984Z,69.70
2018-09-08T07:08:00.480Z,69.80
2018-09-08T07:10:29.874Z,69.90
2018-09-08T07:12:59.359Z,69.90
2018-09-08T07:15:28.735Z,69.80
2018-09-08T07:17:58.337Z,69.90
2018-09-08T07:20:27.779Z,69.80
2018-09-08T07:22:57.208Z,69.80
2018-09-08T07:25:26.662Z,69.50
2018-09-08T07:27:56.086Z,69.50
2018-09-08T07:30:25.409Z,69.60
2018-09-08T07:32:54.788Z,69.80
2018-09-08T07:35:24.181Z,69.80
2018-09-08T07:37:53.591Z,69.90
2018-09-08T07:40:22.973Z,69.80
2018-09-08T07:42:52.355Z,69.70
2018-09-08T07:45:21.780Z,69.70
2018-09-08T07:47:51.129Z,69.60
2018-09-08T07:50:20.542Z,69.70
2018-09-08T07:52:49.908Z,69.40
2018-09-08T07:55:19.240Z,69.50
2018-09-08T07:57:48.693Z,69.40
2018-09-08T08:00:18.127Z,69.30
2018-09-08T08:02:47.698Z,69.00
2018-09-08T08:05:17.075Z,69.10
2018-09-08T08:07:46.533Z,69.10
2018-09-08T08:10:15.922Z,69.30
2018-09-08T08:12:45.592Z,69.10
2018-09-08T08:15:15.088Z,69.20
2018-09-08T08:17:44.562Z,69.10
2018-09-08T08:20:13.895Z,69.10
2018-09-08T08:22:43.262Z,68.70
2018-09-08T08:25:12.786Z,68.20
2018-09-08T08:27:42.172Z,68.20
2018-09-08T08:30:11.550Z,67.70
2018-09-08T08:32:41.003Z,67.40
2018-09-08T08:35:10.447Z,67.70
2018-09-08T08:37:39.797Z,67.60
2018-09-08T08:40:10.327Z,67.50
2018-09-08T08:42:39.709Z,67.10
2018-09-08T08:45:09.092Z,67.30
2018-09-08T08:47:38.439Z,66.10
2018-09-08T08:50:24.768Z,65.20
2018-09-08T08:53:11.160Z,64.80
2018-09-08T08:55:40.664Z,65.00
2018-09-08T08:58:10.059Z,63.90
2018-09-08T09:00:39.423Z,63.00
2018-09-08T09:03:08.821Z,62.80
2018-09-08T09:05:38.366Z,63.60
2018-09-08T09:08:07.795Z,63.40
2018-09-08T09:10:37.216Z,63.30
2018-09-08T09:13:06.659Z,62.60
2018-09-08T09:15:36.380Z,62.50
2018-09-08T09:18:05.389Z,62.80
2018-09-08T09:21:54.947Z,61.60
2018-09-08T09:24:41.342Z,62.30
2018-09-08T09:27:10.449Z,61.40
2018-09-08T09:29:39.905Z,61.70
2018-09-08T09:32:09.295Z,61.20
2018-09-08T09:34:38.796Z,61.90
2018-09-08T09:37:08.172Z,61.60
2018-09-08T09:39:37.547Z,60.90
2018-09-08T09:42:07.091Z,60.80
2018-09-08T09:44:36.521Z,60.90
2018-09-08T09:47:05.842Z,60.60
2018-09-08T09:49:35.225Z,60.40
2018-09-08T09:52:04.730Z,58.00
2018-09-08T09:54:34.155Z,59.20
2018-09-08T09:57:03.693Z,59.50
2018-09-08T09:59:33.117Z,59.10
2018-09-08T10:02:04.153Z,59.20
2018-09-08T10:04:33.888Z,59.30
2018-09-08T10:07:03.359Z,58.70
2018-09-08T10:09:32.741Z,58.50
2018-09-08T10:12:02.204Z,59.20
2018-09-08T10:14:31.564Z,59.90
2018-09-08T10:17:01.006Z,60.50
2018-09-08T10:19:30.477Z,60.60
2018-09-08T10:21:59.932Z,61.40
2018-09-08T10:24:29.479Z,61.50
2018-09-08T10:26:58.891Z,61.60
2018-09-08T10:29:28.340Z,61.60
2018-09-08T10:31:57.751Z,61.30
2018-09-08T10:34:27.129Z,61.50
2018-09-08T10:36:56.510Z,61.40
2018-09-08T10:39:25.876Z,61.50
2018-09-08T10:41:55.286Z,61.30
2018-09-08T10:44:24.688Z,60.90
2018-09-08T10:46:54.127Z,60.70
2018-09-08T10:49:23.516Z,60.80
2018-09-08T10:53:01.799Z,61.10
2018-09-08T10:55:31.241Z,61.20
2018-09-08T10:58:00.673Z,61.00
2018-09-08T11:00:30.064Z,60.40
2018-09-08T11:02:59.491Z,60.30
2018-09-08T11:05:28.902Z,60.40
2018-09-08T11:07:58.332Z,60.00
2018-09-08T11:10:27.730Z,60.20
2018-09-08T11:12:57.125Z,60.60
2018-09-08T11:15:26.518Z,61.20
2018-09-08T11:17:55.947Z,61.50
2018-09-08T11:20:25.368Z,61.10
2018-09-08T11:22:54.808Z,60.80
2018-09-08T11:25:24.184Z,61.20
2018-09-08T11:27:53.661Z,61.50
2018-09-08T11:30:23.020Z,60.90
2018-09-08T11:32:52.383Z,60.70
2018-09-08T11:35:21.750Z,61.10
2018-09-08T11:37:51.135Z,61.10
2018-09-08T11:40:20.562Z,60.80
2018-09-08T11:42:49.978Z,60.50
2018-09-08T11:45:19.374Z,61.00
2018-09-08T11:47:48.752Z,61.30
2018-09-08T11:50:18.171Z,61.60
2018-09-08T11:52:47.560Z,60.60
2018-09-08T11:55:16.945Z,60.80
2018-09-08T11:57:46.365Z,61.10
2018-09-08T12:00:15.785Z,61.00
2018-09-08T12:02:45.186Z,60.50
2018-09-08T12:05:14.629Z,60.70
2018-09-08T12:07:46.504Z,61.10
2018-09-08T12:10:15.881Z,60.40
2018-09-08T12:12:45.300Z,60.70
2018-09-08T12:15:14.690Z,60.30
2018-09-08T12:17:44.067Z,60.50
2018-09-08T12:20:13.423Z,60.30
2018-09-08T12:22:42.828Z,60.50
2018-09-08T12:25:12.253Z,60.00
2018-09-08T12:27:41.690Z,59.80
2018-09-08T12:30:11.150Z,60.30
2018-09-08T12:32:40.570Z,60.70
2018-09-08T12:35:09.935Z,60.00
2018-09-08T12:37:39.309Z,60.10
2018-09-08T12:40:08.885Z,57.50
2018-09-08T12:42:38.286Z,58.60
2018-09-08T12:45:07.869Z,58.80
2018-09-08T12:47:37.289Z,58.80
2018-09-08T12:50:06.748Z,59.60
2018-09-08T12:52:36.212Z,59.40
2018-09-08T12:55:05.963Z,59.80
2018-09-08T12:57:35.365Z,59.80
2018-09-08T13:00:04.825Z,59.80
2018-09-08T13:02:34.347Z,59.10
2018-09-08T13:05:03.748Z,59.40
2018-09-08T13:07:33.776Z,58.70
2018-09-08T13:10:03.138Z,58.70
2018-09-08T13:12:32.690Z,58.40
2018-09-08T13:15:02.124Z,58.70
2018-09-08T13:17:31.512Z,58.60
2018-09-08T13:20:00.928Z,58.70
2018-09-08T13:22:30.345Z,58.80
2018-09-08T13:24:59.790Z,59.00
2018-09-08T13:27:29.249Z,58.20
2018-09-08T13:29:58.680Z,58.30
2018-09-08T13:32:28.070Z,58.30
2018-09-08T13:34:57.524Z,58.90
2018-09-08T13:37:26.954Z,58.60
2018-09-08T13:39:56.546Z,58.90
2018-09-08T13:42:25.917Z,58.60
2018-09-08T13:44:55.409Z,58.70
2018-09-08T13:47:25.176Z,58.70
2018-09-08T13:49:55.604Z,59.20
2018-09-08T13:52:25.054Z,59.50
2018-09-08T13:54:54.574Z,59.90
2018-09-08T13:57:24.704Z,57.80
2018-09-08T13:59:54.227Z,58.30
2018-09-08T14:02:23.761Z,58.70
2018-09-08T14:04:53.289Z,58.70
2018-09-08T14:07:22.867Z,59.30
2018-09-08T14:09:52.477Z,59.40
2018-09-08T14:12:21.921Z,59.90
2018-09-08T14:14:51.445Z,60.20
2018-09-08T14:17:20.915Z,59.60
2018-09-08T14:19:50.438Z,59.70
2018-09-08T14:22:19.873Z,59.30
2018-09-08T14:24:49.409Z,58.60
2018-09-08T14:27:18.893Z,59.10
2018-09-08T14:29:48.364Z,59.30
2018-09-08T14:32:17.905Z,58.40
2018-09-08T14:34:47.393Z,59.20
2018-09-08T14:37:16.987Z,59.10
2018-09-08T14:39:46.629Z,58.90
2018-09-08T14:42:16.233Z,59.20
2018-09-08T14:44:45.726Z,59.30
2018-09-08T14:47:16.203Z,59.20
2018-09-08T14:49:45.674Z,58.20
2018-09-08T14:52:15.324Z,59.00
2018-09-08T14:54:44.920Z,59.20
2018-09-08T14:57:14.537Z,59.20
2018-09-08T14:59:44.177Z,59.40
2018-09-08T15:02:13.662Z,59.00
2018-09-08T15:04:43.308Z,59.40
2018-09-08T15:07:12.858Z,59.80
2018-09-08T15:09:42.405Z,59.10
2018-09-08T15:12:11.947Z,59.30
2018-09-08T15:14:41.515Z,59.30
2018-09-08T15:17:11.002Z,58.90
2018-09-08T15:19:40.560Z,59.20
2018-09-08T15:22:09.983Z,59.70
2018-09-08T15:24:39.475Z,59.90
2018-09-08T15:27:08.999Z,59.70
2018-09-08T15:29:38.622Z,59.30
2018-09-08T15:32:08.118Z,59.60
2018-09-08T15:34:37.621Z,59.40
2018-09-08T15:37:07.109Z,59.30
2018-09-08T15:39:36.601Z,59.30
2018-09-08T15:42:06.351Z,59.20
2018-09-08T15:44:35.847Z,59.20
2018-09-08T15:47:05.420Z,59.10
2018-09-08T15:49:34.914Z,59.50
2018-09-08T15:52:04.544Z,59.70
2018-09-08T15:54:34.009Z,59.60
2018-09-08T15:57:03.684Z,59.60
2018-09-08T15:59:33.127Z,59.50
2018-09-08T16:02:02.728Z,59.20
2018-09-08T16:04:32.311Z,59.20
2018-09-08T16:07:01.790Z,59.30
2018-09-08T16:09:31.260Z,59.30
2018-09-08T16:12:00.736Z,59.00
2018-09-08T16:14:30.437Z,58.90
2018-09-08T16:16:59.737Z,59.30
2018-09-08T16:19:29.246Z,58.80
2018-09-08T16:21:58.779Z,60.10
2018-09-08T16:24:28.405Z,59.20
2018-09-08T16:26:57.889Z,59.20
2018-09-08T16:29:27.491Z,59.30
2018-09-08T16:31:56.916Z,59.20
2018-09-08T16:34:26.372Z,59.10
2018-09-08T16:36:55.757Z,59.10
2018-09-08T16:39:25.177Z,59.20
2018-09-08T16:41:54.920Z,59.20
2018-09-08T16:44:25.315Z,59.20
2018-09-08T16:46:54.745Z,59.00
2018-09-08T16:49:24.388Z,59.00
2018-09-08T16:51:53.957Z,58.90
2018-09-08T16:54:23.414Z,58.80
2018-09-08T16:56:52.874Z,58.70
2018-09-08T16:59:22.388Z,58.60
2018-09-08T17:01:51.842Z,58.60
2018-09-08T17:04:21.290Z,58.60
2018-09-08T17:06:51.077Z,58.40
2018-09-08T17:09:20.441Z,58.20
2018-09-08T17:11:49.879Z,58.70
2018-09-08T17:14:19.352Z,58.30
2018-09-08T17:16:48.817Z,58.20
2018-09-08T17:19:18.338Z,58.20
2018-09-08T17:21:47.776Z,58.30
2018-09-08T17:24:17.232Z,58.40
2018-09-08T17:26:46.802Z,58.30
2018-09-08T17:29:16.331Z,58.30
2018-09-08T17:31:45.905Z,58.50
2018-09-08T17:34:15.491Z,58.70
2018-09-08T17:36:45.057Z,58.60
2018-09-08T17:39:14.604Z,58.70
2018-09-08T17:41:44.147Z,58.80
2018-09-08T17:44:13.571Z,58.70
2018-09-08T17:46:43.147Z,58.90
2018-09-08T17:49:12.534Z,59.00
2018-09-08T17:51:41.929Z,58.80
2018-09-08T17:54:11.301Z,58.80
2018-09-08T17:56:40.690Z,58.90
2018-09-08T17:59:10.045Z,58.80
2018-09-08T18:01:39.478Z,58.80
2018-09-08T18:04:08.877Z,59.00
2018-09-08T18:06:38.253Z,59.10
2018-09-08T18:09:07.817Z,59.10
2018-09-08T18:11:37.187Z,59.10
2018-09-08T18:14:06.625Z,59.10
2018-09-08T18:16:36.068Z,59.30
2018-09-08T18:19:05.453Z,59.30
2018-09-08T18:21:34.937Z,59.40
2018-09-08T18:24:04.352Z,59.40
2018-09-08T18:26:33.815Z,59.40
2018-09-08T18:29:03.192Z,59.90
2018-09-08T18:31:32.710Z,59.80
2018-09-08T18:34:02.153Z,59.90
2018-09-08T18:36:31.857Z,60.00
2018-09-08T18:39:01.249Z,60.20
2018-09-08T18:41:30.707Z,60.30
2018-09-08T18:44:00.046Z,61.20
2018-09-08T18:46:29.434Z,60.60
2018-09-08T18:48:58.805Z,60.70
2018-09-08T18:51:28.181Z,60.80
2018-09-08T18:53:57.682Z,60.80
2018-09-08T18:56:27.028Z,61.10
2018-09-08T18:58:56.497Z,61.10
2018-09-08T19:01:25.906Z,61.20
2018-09-08T19:03:55.303Z,61.20
2018-09-08T19:06:24.718Z,61.30
2018-09-08T19:08:54.212Z,61.30
2018-09-08T19:11:23.613Z,61.50
2018-09-08T19:13:53.107Z,61.40
2018-09-08T19:16:22.550Z,61.50
2018-09-08T19:18:52.031Z,61.40
2018-09-08T19:21:21.450Z,61.50
2018-09-08T19:24:55.409Z,61.60
2018-09-08T19:27:24.846Z,62.10
2018-09-08T19:29:58.424Z,61.60
2018-09-08T19:32:28.596Z,61.40
2018-09-08T19:35:02.940Z,61.40
2018-09-08T19:37:35.542Z,61.40
2018-09-08T19:40:09.118Z,61.30
2018-09-08T19:42:38.567Z,61.30
2018-09-08T19:45:08.756Z,61.10
2018-09-08T19:47:43.388Z,61.30
2018-09-08T19:50:12.854Z,61.30
2018-09-08T19:52:47.417Z,61.40
2018-09-08T19:55:16.799Z,61.40
2018-09-08T19:57:51.467Z,61.50
2018-09-08T20:00:20.942Z,61.60
2018-09-08T20:02:50.334Z,61.50
2018-09-08T20:05:19.768Z,61.50
2018-09-08T20:07:49.163Z,61.60
2018-09-08T20:10:18.608Z,61.60
2018-09-08T20:12:48.087Z,61.60
2018-09-08T20:15:17.513Z,61.50
2018-09-08T20:17:46.903Z,61.50
2018-09-08T20:20:16.274Z,61.50
2018-09-08T20:22:45.693Z,61.60
2018-09-08T20:25:15.088Z,61.50
2018-09-08T20:27:44.526Z,61.60
2018-09-08T20:30:13.944Z,61.60
2018-09-08T20:32:43.334Z,61.50
2018-09-08T20:35:12.778Z,61.60
2018-09-08T20:37:42.185Z,61.60
2018-09-08T20:40:11.649Z,61.60
2018-09-08T20:42:41.105Z,61.70
2018-09-08T20:45:10.502Z,61.80
2018-09-08T20:47:39.908Z,62.70
2018-09-08T20:50:09.318Z,62.40
2018-09-08T20:52:38.645Z,62.30
2018-09-08T20:55:08.098Z,62.20
2018-09-08T20:57:37.549Z,62.20
2018-09-08T21:00:06.994Z,62.10
2018-09-08T21:02:36.424Z,62.20
2018-09-08T21:05:06.129Z,62.20
2018-09-08T21:07:35.571Z,62.20
2018-09-08T21:10:04.889Z,62.30
2018-09-08T21:12:34.302Z,62.50
2018-09-08T21:15:03.700Z,62.40
2018-09-08T21:17:33.095Z,62.40
2018-09-08T21:20:02.591Z,62.20
2018-09-08T21:22:31.932Z,62.10
2018-09-08T21:25:01.374Z,62.80
2018-09-08T21:27:30.834Z,62.60
2018-09-08T21:30:00.233Z,62.60
2018-09-08T21:32:29.594Z,62.50
2018-09-08T21:34:59.025Z,62.30
2018-09-08T21:37:28.523Z,62.30
2018-09-08T21:39:57.907Z,62.40
2018-09-08T21:42:31.069Z,62.50
2018-09-08T21:45:00.427Z,62.40
2018-09-08T21:47:29.824Z,62.40
2018-09-08T21:49:59.224Z,63.00
2018-09-08T21:52:28.599Z,62.50
2018-09-08T21:54:58.556Z,62.50
2018-09-08T21:57:27.978Z,62.60
2018-09-08T21:59:57.408Z,62.80
2018-09-08T22:02:26.865Z,62.90
2018-09-08T22:04:56.223Z,62.90
2018-09-08T22:07:25.574Z,63.60
2018-09-08T22:09:54.951Z,63.30
2018-09-08T22:12:24.350Z,63.10
2018-09-08T22:14:53.734Z,63.10
2018-09-08T22:17:23.130Z,64.00
2018-09-08T22:19:52.483Z,63.40
2018-09-08T22:22:21.885Z,63.40
2018-09-08T22:24:51.268Z,63.30
2018-09-08T22:27:20.682Z,63.30
2018-09-08T22:29:50.082Z,63.40
2018-09-08T22:32:19.447Z,63.30
2018-09-08T22:34:48.833Z,63.10
2018-09-08T22:37:18.221Z,64.00
2018-09-08T22:39:47.549Z,63.10
2018-09-08T22:42:16.916Z,63.10
2018-09-08T22:44:46.288Z,63.10
2018-09-08T22:47:15.712Z,63.20
2018-09-08T22:49:45.069Z,63.20
2018-09-08T22:52:14.419Z,63.40
2018-09-08T22:54:43.778Z,63.40
2018-09-08T22:57:13.159Z,63.40
2018-09-08T22:59:42.604Z,63.50
2018-09-08T23:02:11.893Z,63.50
2018-09-08T23:04:41.313Z,63.60
2018-09-08T23:07:10.688Z,63.60
2018-09-08T23:09:40.093Z,63.60
2018-09-08T23:12:09.455Z,63.60
2018-09-08T23:14:38.868Z,63.90
2018-09-08T23:17:08.226Z,64.00
2018-09-08T23:19:37.625Z,64.10
2018-09-08T23:22:06.965Z,64.20
2018-09-08T23:24:36.374Z,64.10
2018-09-08T23:27:05.710Z,64.20
2018-09-08T23:29:35.114Z,64.10
2018-09-08T23:32:04.505Z,64.10
2018-09-08T23:34:33.858Z,64.10
2018-09-08T23:37:03.228Z,64.20
2018-09-08T23:39:32.603Z,64.10
2018-09-08T23:42:01.998Z,64.00
2018-09-08T23:44:31.353Z,64.00
2018-09-08T23:47:00.683Z,64.00
2018-09-08T23:49:30.070Z,64.00
2018-09-08T23:51:59.550Z,64.00
2018-09-08T23:54:28.917Z,64.00
2018-09-08T23:56:58.321Z,64.10
2018-09-08T23:59:27.867Z,64.30
